createdAt,value
2023-04-03T00:04:27.857Z,8.07
2023-04-03T00:09:30.468Z,8.13
2023-04-03T00:14:33.302Z,8.17
2023-04-03T00:19:36.337Z,8.11
2023-04-03T00:24:38.975Z,8.09
2023-04-03T00:29:41.668Z,7.86
2023-04-03T00:34:45.074Z,8.04
2023-04-03T00:39:47.785Z,7.98
2023-04-03T00:44:50.485Z,8.01
2023-04-03T00:49:54.615Z,8.01
2023-04-03T00:55:03.409Z,7.98
2023-04-03T01:00:10.502Z,8.00
2023-04-03T01:05:14.191Z,8.00
2023-04-03T01:10:20.715Z,7.99
2023-04-03T01:15:29.991Z,8.04
2023-04-03T01:20:32.633Z,8.02
2023-04-03T01:25:42.478Z,8.00
2023-04-03T01:31:00.927Z,7.96
2023-04-03T01:36:05.580Z,7.89
2023-04-03T01:41:09.327Z,7.83
2023-04-03T01:46:12.823Z,7.79
2023-04-03T01:51:15.706Z,7.68
2023-04-03T01:56:18.553Z,7.78
2023-04-03T02:01:22.340Z,7.81
2023-04-03T02:06:25.326Z,7.83
2023-04-03T02:11:28.005Z,7.70
2023-04-03T02:16:31.881Z,7.84
2023-04-03T02:21:34.570Z,7.79
2023-04-03T02:26:37.408Z,7.79
2023-04-03T02:31:41.152Z,7.82
2023-04-03T02:36:43.953Z,7.63
2023-04-03T02:41:48.045Z,7.78
2023-04-03T02:46:56.169Z,7.64
2023-04-03T02:51:59.673Z,7.56
2023-04-03T02:57:02.653Z,7.57
2023-04-03T03:02:05.681Z,7.50
2023-04-03T03:07:08.435Z,7.45
2023-04-03T03:12:11.308Z,7.43
2023-04-03T03:17:13.868Z,7.55
2023-04-03T03:22:17.650Z,7.63
2023-04-03T03:27:20.306Z,7.66
2023-04-03T03:32:23.206Z,7.68
2023-04-03T03:37:26.013Z,7.75
2023-04-03T03:42:28.670Z,7.91
2023-04-03T03:47:31.781Z,8.08
2023-04-03T03:52:34.545Z,8.26
2023-04-03T03:57:37.767Z,8.26
2023-04-03T04:02:41.506Z,8.63
2023-04-03T04:07:47.447Z,8.72
2023-04-03T04:12:52.502Z,8.68
2023-04-03T04:17:59.100Z,9.21
2023-04-03T04:23:02.200Z,9.51
2023-04-03T04:28:07.598Z,9.80
2023-04-03T04:33:11.130Z,10.03
2023-04-03T04:38:14.791Z,10.28
2023-04-03T04:43:18.265Z,10.45
2023-04-03T04:48:23.550Z,10.66
2023-04-03T04:53:26.413Z,10.59
2023-04-03T04:58:29.673Z,10.60
2023-04-03T05:03:33.457Z,10.60
2023-04-03T05:08:36.400Z,10.73
2023-04-03T05:13:39.973Z,10.83
2023-04-03T05:18:42.784Z,10.99
2023-04-03T05:23:53.403Z,11.10
2023-04-03T05:28:57.277Z,11.15
2023-04-03T05:34:00.510Z,11.12
2023-04-03T05:39:05.272Z,11.19
2023-04-03T05:44:11.247Z,11.28
2023-04-03T05:49:14.015Z,11.26
2023-04-03T05:54:26.103Z,11.33
2023-04-03T05:59:33.843Z,11.34
2023-04-03T06:04:36.936Z,11.29
2023-04-03T06:09:40.985Z,11.27
2023-04-03T06:14:43.889Z,11.27
2023-04-03T06:19:47.318Z,11.09
2023-04-03T06:24:50.327Z,11.21
2023-04-03T06:29:53.003Z,11.17
2023-04-03T06:34:56.631Z,11.18
2023-04-03T06:40:01.498Z,11.14
2023-04-03T06:45:04.662Z,11.19
2023-04-03T06:50:08.339Z,11.25
2023-04-03T06:55:11.535Z,11.11
2023-04-03T07:00:17.319Z,11.22
2023-04-03T07:05:20.243Z,11.48
2023-04-03T07:10:23.725Z,11.84
2023-04-03T07:15:26.407Z,12.24
2023-04-03T07:20:29.181Z,12.70
2023-04-03T07:25:33.413Z,13.12
2023-04-03T07:30:43.996Z,13.30
2023-04-03T07:35:47.214Z,13.75
2023-04-03T07:40:51.820Z,13.74
2023-04-03T07:45:55.284Z,14.11
2023-04-03T07:51:02.075Z,14.66
2023-04-03T07:56:04.939Z,14.60
2023-04-03T08:01:07.647Z,13.68
2023-04-03T08:06:15.783Z,13.87
2023-04-03T08:11:19.958Z,14.09
2023-04-03T08:16:26.719Z,13.85
2023-04-03T08:21:29.295Z,13.35
2023-04-03T08:26:32.186Z,13.46
2023-04-03T08:31:34.853Z,13.48
2023-04-03T08:36:37.484Z,13.43
2023-04-03T08:41:43.641Z,13.71
2023-04-03T08:46:55.309Z,13.86
2023-04-03T08:52:00.475Z,13.71
2023-04-03T08:57:07.585Z,13.44
2023-04-03T09:02:48.399Z,13.71
2023-04-03T09:08:01.776Z,14.26
2023-04-03T09:13:32.395Z,14.21
2023-04-03T09:18:43.005Z,14.05
2023-04-03T09:23:51.220Z,14.17
2023-04-03T09:28:56.996Z,14.80
2023-04-03T09:34:27.454Z,15.22
2023-04-03T09:39:30.819Z,15.07
2023-04-03T09:44:36.908Z,14.24
2023-04-03T09:49:39.486Z,14.10
2023-04-03T09:54:42.400Z,14.84
2023-04-03T09:59:59.819Z,14.79
2023-04-03T10:05:09.509Z,14.50
2023-04-03T10:10:15.739Z,13.68
2023-04-03T10:15:22.662Z,13.84
2023-04-03T10:20:31.483Z,14.22
2023-04-03T10:25:45.284Z,14.63
2023-04-03T10:30:47.845Z,14.36
2023-04-03T10:36:12.927Z,14.25
2023-04-03T10:41:27.311Z,14.78
2023-04-03T10:46:42.605Z,14.98
2023-04-03T10:51:49.474Z,14.90
2023-04-03T10:57:08.712Z,14.79
2023-04-03T11:02:18.503Z,14.64
2023-04-03T11:07:32.749Z,14.26
2023-04-03T11:12:46.518Z,14.57
2023-04-03T11:17:56.331Z,15.25
2023-04-03T11:23:05.152Z,15.09
2023-04-03T11:28:14.486Z,15.03
2023-04-03T11:33:36.451Z,15.05
2023-04-03T11:38:44.600Z,14.58
2023-04-03T11:43:59.360Z,14.65
2023-04-03T11:49:02.023Z,14.32
2023-04-03T11:54:44.851Z,14.82
2023-04-03T11:59:48.227Z,14.94
2023-04-03T12:05:29.857Z,14.97
2023-04-03T12:10:32.915Z,15.24
2023-04-03T12:15:38.871Z,15.22
2023-04-03T12:20:55.140Z,14.47
2023-04-03T12:26:06.063Z,14.03
2023-04-03T12:31:11.847Z,13.86
2023-04-03T12:36:32.018Z,13.97
2023-04-03T12:41:46.107Z,14.23
2023-04-03T12:46:52.026Z,13.98
2023-04-03T12:51:54.909Z,13.93
2023-04-03T12:57:24.807Z,14.14
2023-04-03T13:02:34.579Z,14.01
2023-04-03T13:07:42.001Z,13.88
2023-04-03T13:12:50.541Z,13.77
2023-04-03T13:17:56.142Z,13.39
2023-04-03T13:23:06.357Z,13.17
2023-04-03T13:28:14.632Z,12.84
2023-04-03T13:33:24.079Z,12.59
2023-04-03T13:38:32.534Z,12.59
2023-04-03T13:43:37.858Z,12.57
2023-04-03T13:48:51.046Z,12.44
2023-04-03T13:54:01.064Z,12.29
2023-04-03T13:59:06.918Z,12.47
2023-04-03T14:04:22.859Z,12.44
2023-04-03T14:09:27.772Z,12.33
2023-04-03T14:14:34.169Z,12.28
2023-04-03T14:19:37.317Z,12.26
2023-04-03T14:24:40.419Z,12.16
2023-04-03T14:29:43.248Z,12.09
2023-04-03T14:34:46.734Z,11.92
2023-04-03T14:39:49.802Z,11.80
2023-04-03T14:44:53.737Z,11.59
2023-04-03T14:49:56.433Z,11.53
2023-04-03T14:54:59.900Z,11.54
2023-04-03T15:00:13.523Z,11.58
2023-04-03T15:05:17.064Z,11.59
2023-04-03T15:10:25.937Z,11.40
2023-04-03T15:15:30.480Z,11.49
2023-04-03T15:20:34.721Z,11.46
2023-04-03T15:25:37.362Z,11.37
2023-04-03T15:30:41.760Z,11.12
2023-04-03T15:35:44.473Z,11.15
2023-04-03T15:40:48.183Z,11.13
2023-04-03T15:45:51.706Z,11.12
2023-04-03T15:50:56.627Z,10.99
2023-04-03T15:56:00.492Z,11.01
2023-04-03T16:01:03.414Z,10.80
2023-04-03T16:06:06.358Z,10.73
2023-04-03T16:11:09.351Z,10.65
2023-04-03T16:16:11.989Z,10.64
2023-04-03T16:21:16.583Z,10.67
2023-04-03T16:26:19.880Z,10.57
2023-04-03T16:31:24.110Z,10.53
2023-04-03T16:36:26.962Z,10.53
2023-04-03T16:41:29.609Z,10.53
2023-04-03T16:46:32.305Z,10.43
2023-04-03T16:51:34.937Z,10.25
2023-04-03T16:56:37.853Z,10.07
2023-04-03T17:01:40.678Z,10.03
2023-04-03T17:06:43.341Z,10.21
2023-04-03T17:11:48.635Z,10.14
2023-04-03T17:16:52.703Z,10.02
2023-04-03T17:21:56.171Z,10.00
2023-04-03T17:26:59.083Z,9.97
2023-04-03T17:32:01.803Z,9.93
2023-04-03T17:37:04.775Z,9.70
2023-04-03T17:42:07.549Z,9.57
2023-04-03T17:47:10.295Z,9.50
2023-04-03T17:52:12.963Z,9.41
2023-04-03T17:57:15.571Z,9.29
2023-04-03T18:02:18.336Z,9.28
2023-04-03T18:07:21.129Z,9.22
2023-04-03T18:12:24.374Z,9.17
2023-04-03T18:17:27.227Z,9.08
2023-04-03T18:22:30.069Z,8.92
2023-04-03T18:27:32.773Z,8.81
2023-04-03T18:32:35.394Z,8.81
2023-04-03T18:37:38.118Z,8.71
2023-04-03T18:42:41.990Z,8.74
2023-04-03T18:47:44.686Z,8.80
2023-04-03T18:52:50.960Z,8.66
2023-04-03T18:57:53.643Z,8.70
2023-04-03T19:02:56.400Z,8.68
2023-04-03T19:07:59.060Z,8.57
2023-04-03T19:13:01.947Z,8.50
2023-04-03T19:18:04.764Z,8.45
2023-04-03T19:23:08.891Z,8.42
2023-04-03T19:28:13.113Z,8.35
2023-04-03T19:33:16.413Z,8.26
2023-04-03T19:38:19.061Z,8.17
2023-04-03T19:43:21.833Z,8.20
2023-04-03T19:48:25.252Z,8.18
2023-04-03T19:53:31.242Z,8.19
2023-04-03T19:58:34.321Z,8.19
2023-04-03T20:03:36.892Z,8.18
2023-04-03T20:08:39.614Z,8.35
2023-04-03T20:13:42.419Z,8.35
2023-04-03T20:18:45.976Z,8.36
2023-04-03T20:23:51.467Z,8.35
2023-04-03T20:28:56.895Z,8.20
2023-04-03T20:33:59.458Z,8.07
2023-04-03T20:39:02.259Z,8.14
2023-04-03T20:44:05.757Z,8.09
2023-04-03T20:49:08.509Z,8.07
2023-04-03T20:54:11.624Z,8.17
2023-04-03T20:59:14.356Z,8.24
2023-04-03T21:04:32.482Z,8.34
2023-04-03T21:10:12.492Z,8.16
2023-04-03T21:15:46.157Z,8.13
2023-04-03T21:20:49.617Z,8.04
2023-04-03T21:25:52.332Z,8.16
2023-04-03T21:30:55.050Z,8.11
2023-04-03T21:36:00.021Z,8.17
2023-04-03T21:41:03.084Z,8.23
2023-04-03T21:46:06.390Z,8.19
2023-04-03T21:51:09.077Z,8.15
2023-04-03T21:56:11.658Z,8.17
2023-04-03T22:01:15.760Z,8.18
2023-04-03T22:06:18.712Z,8.21
2023-04-03T22:11:23.115Z,8.27
2023-04-03T22:16:26.773Z,8.08
2023-04-03T22:21:29.519Z,8.20
2023-04-03T22:26:32.112Z,8.07
2023-04-03T22:31:35.649Z,7.99
2023-04-03T22:36:38.844Z,7.65
2023-04-03T22:41:42.196Z,7.82
2023-04-03T22:46:44.899Z,7.76
2023-04-03T22:51:47.514Z,7.59
2023-04-03T22:56:50.057Z,7.61
2023-04-03T23:01:52.724Z,7.62
2023-04-03T23:06:55.507Z,7.48
2023-04-03T23:11:58.703Z,7.33
2023-04-03T23:17:05.782Z,7.26
2023-04-03T23:22:08.361Z,7.17
2023-04-03T23:27:10.911Z,7.19
2023-04-03T23:32:13.602Z,7.08
2023-04-03T23:37:16.482Z,7.14
2023-04-03T23:42:19.085Z,7.08
2023-04-03T23:47:21.994Z,7.02
2023-04-03T23:52:24.703Z,7.07
2023-04-03T23:57:27.396Z,6.81
